createdAt,value
2022-11-13T00:02:18.293Z,14.72
2022-11-13T00:04:45.043Z,14.73
2022-11-13T00:07:11.959Z,14.74
2022-11-13T00:09:38.993Z,14.75
2022-11-13T00:12:06.406Z,14.78
2022-11-13T00:14:33.449Z,14.77
2022-11-13T00:17:00.188Z,14.77
2022-11-13T00:19:26.962Z,14.77
2022-11-13T00:21:55.093Z,14.77
2022-11-13T00:24:21.862Z,14.78
2022-11-13T00:26:48.599Z,14.79
2022-11-13T00:29:15.482Z,14.79
2022-11-13T00:31:42.333Z,14.81
2022-11-13T00:34:26.364Z,14.80
2022-11-13T00:36:57.193Z,14.79
2022-11-13T00:39:23.953Z,14.80
2022-11-13T00:41:50.782Z,14.81
2022-11-13T00:44:17.492Z,14.81
2022-11-13T00:46:44.341Z,14.80
2022-11-13T00:49:11.182Z,14.80
2022-11-13T00:51:37.989Z,14.81
2022-11-13T00:54:04.712Z,14.80
2022-11-13T00:56:31.632Z,14.80
2022-11-13T00:58:58.656Z,14.81
2022-11-13T01:01:25.553Z,14.81
2022-11-13T01:03:52.324Z,14.81
2022-11-13T01:06:21.563Z,14.80
2022-11-13T01:08:48.815Z,14.81
2022-11-13T01:11:17.891Z,14.80
2022-11-13T01:13:45.851Z,14.81
2022-11-13T01:16:13.702Z,14.81
2022-11-13T01:18:41.712Z,14.82
2022-11-13T01:21:11.875Z,14.81
2022-11-13T01:23:39.111Z,14.82
2022-11-13T01:26:08.272Z,14.81
2022-11-13T01:28:35.031Z,14.82
2022-11-13T01:31:04.421Z,14.84
2022-11-13T01:33:31.163Z,14.83
2022-11-13T01:36:07.951Z,14.82
2022-11-13T01:38:36.843Z,14.82
2022-11-13T01:41:05.227Z,14.81
2022-11-13T01:43:33.896Z,14.83
2022-11-13T01:46:00.745Z,14.83
2022-11-13T01:48:32.452Z,14.81
2022-11-13T01:50:59.107Z,14.80
2022-11-13T01:53:26.026Z,14.79
2022-11-13T01:55:53.207Z,14.80
2022-11-13T01:58:20.161Z,14.79
2022-11-13T02:00:46.833Z,14.81
2022-11-13T02:03:13.426Z,14.84
2022-11-13T02:05:40.087Z,14.84
2022-11-13T02:08:06.683Z,14.84
2022-11-13T02:10:33.422Z,14.83
2022-11-13T02:13:00.622Z,14.83
2022-11-13T02:15:28.942Z,14.81
2022-11-13T02:17:56.972Z,14.82
2022-11-13T02:20:27.997Z,14.82
2022-11-13T02:23:01.881Z,14.83
2022-11-13T02:25:30.216Z,14.82
2022-11-13T02:27:56.897Z,14.81
2022-11-13T02:30:27.836Z,14.79
2022-11-13T02:32:55.547Z,14.81
2022-11-13T02:35:24.936Z,14.79
2022-11-13T02:37:51.541Z,14.76
2022-11-13T02:40:18.638Z,14.81
2022-11-13T02:42:45.282Z,14.81
2022-11-13T02:45:11.962Z,14.82
2022-11-13T02:47:38.635Z,14.79
2022-11-13T02:50:05.984Z,14.77
2022-11-13T02:52:32.676Z,14.76
2022-11-13T02:54:59.688Z,14.77
2022-11-13T02:57:26.456Z,14.80
2022-11-13T02:59:53.113Z,14.80
2022-11-13T03:02:19.815Z,14.79
2022-11-13T03:05:11.009Z,14.82
2022-11-13T03:07:33.328Z,14.81
2022-11-13T03:10:00.102Z,14.82
2022-11-13T03:12:26.807Z,14.81
2022-11-13T03:14:54.616Z,14.80
2022-11-13T03:17:21.272Z,14.78
2022-11-13T03:19:47.937Z,14.77
2022-11-13T03:22:14.566Z,14.77
2022-11-13T03:24:41.257Z,14.78
2022-11-13T03:27:07.882Z,14.78
2022-11-13T03:29:34.486Z,14.77
2022-11-13T03:32:01.097Z,14.77
2022-11-13T03:34:28.251Z,14.77
2022-11-13T03:36:54.900Z,14.80
2022-11-13T03:39:21.517Z,14.81
2022-11-13T03:41:48.131Z,14.82
2022-11-13T03:44:14.721Z,14.81
2022-11-13T03:46:41.325Z,14.80
2022-11-13T03:49:08.321Z,14.81
2022-11-13T03:51:35.011Z,14.79
2022-11-13T03:54:01.651Z,14.79
2022-11-13T03:56:28.267Z,14.76
2022-11-13T03:58:54.912Z,14.76
2022-11-13T04:01:21.648Z,14.78
2022-11-13T04:03:48.341Z,14.82
2022-11-13T04:06:15.117Z,14.81
2022-11-13T04:08:41.722Z,14.78
2022-11-13T04:11:09.582Z,14.77
2022-11-13T04:13:36.255Z,14.77
2022-11-13T04:16:03.385Z,14.78
2022-11-13T04:18:30.267Z,14.78
2022-11-13T04:21:01.521Z,14.75
2022-11-13T04:23:28.506Z,14.75
2022-11-13T04:25:55.151Z,14.74
2022-11-13T04:28:22.240Z,14.75
2022-11-13T04:30:49.096Z,14.75
2022-11-13T04:33:15.730Z,14.73
2022-11-13T04:35:45.815Z,14.73
2022-11-13T04:38:12.976Z,14.73
2022-11-13T04:40:39.802Z,14.73
2022-11-13T04:43:06.463Z,14.73
2022-11-13T04:45:33.436Z,14.71
2022-11-13T04:48:00.221Z,14.70
2022-11-13T04:50:26.872Z,14.69
2022-11-13T04:52:53.498Z,14.70
2022-11-13T04:55:20.105Z,14.69
2022-11-13T04:57:46.982Z,14.69
2022-11-13T05:00:14.936Z,14.69
2022-11-13T05:02:41.563Z,14.68
2022-11-13T05:05:08.560Z,14.69
2022-11-13T05:07:35.290Z,14.65
2022-11-13T05:10:02.061Z,14.66
2022-11-13T05:12:28.765Z,14.69
2022-11-13T05:14:55.382Z,14.68
2022-11-13T05:17:23.403Z,14.65
2022-11-13T05:19:50.005Z,14.66
2022-11-13T05:22:16.641Z,14.63
2022-11-13T05:24:43.350Z,14.62
2022-11-13T05:27:15.808Z,14.62
2022-11-13T05:29:43.755Z,14.64
2022-11-13T05:32:10.394Z,14.62
2022-11-13T05:34:37.049Z,14.62
2022-11-13T05:37:04.010Z,14.61
2022-11-13T05:39:30.757Z,14.60
2022-11-13T05:41:57.396Z,14.59
2022-11-13T05:44:23.969Z,14.57
2022-11-13T05:46:50.587Z,14.54
2022-11-13T05:49:17.284Z,14.52
2022-11-13T05:51:43.938Z,14.50
2022-11-13T05:54:11.030Z,14.49
2022-11-13T05:56:37.734Z,14.50
2022-11-13T05:59:05.261Z,14.48
2022-11-13T06:01:33.961Z,14.48
2022-11-13T06:04:01.354Z,14.48
2022-11-13T06:06:30.010Z,14.49
2022-11-13T06:08:57.426Z,14.50
2022-11-13T06:11:25.954Z,14.50
2022-11-13T06:13:53.540Z,14.48
2022-11-13T06:16:21.915Z,14.47
2022-11-13T06:18:49.270Z,14.47
2022-11-13T06:21:17.191Z,14.46
2022-11-13T06:23:43.890Z,14.47
2022-11-13T06:26:12.256Z,14.47
2022-11-13T06:28:38.994Z,14.50
2022-11-13T06:31:06.569Z,14.50
2022-11-13T06:33:33.285Z,14.49
2022-11-13T06:36:04.112Z,14.48
2022-11-13T06:38:32.599Z,14.48
2022-11-13T06:40:59.563Z,14.48
2022-11-13T06:43:26.566Z,14.47
2022-11-13T06:45:53.366Z,14.46
2022-11-13T06:48:20.035Z,14.46
2022-11-13T06:50:48.614Z,14.46
2022-11-13T06:53:15.929Z,14.45
2022-11-13T06:55:43.765Z,14.44
2022-11-13T06:58:10.374Z,14.42
2022-11-13T07:00:39.791Z,14.39
2022-11-13T07:03:06.875Z,14.38
2022-11-13T07:05:36.528Z,14.37
2022-11-13T07:08:03.349Z,14.37
2022-11-13T07:10:30.016Z,14.33
2022-11-13T07:12:59.081Z,14.29
2022-11-13T07:15:25.940Z,14.28
2022-11-13T07:17:52.593Z,14.27
2022-11-13T07:20:19.316Z,14.28
2022-11-13T07:22:45.934Z,14.28
2022-11-13T07:25:12.668Z,14.28
2022-11-13T07:27:44.525Z,14.28
2022-11-13T07:30:11.536Z,14.26
2022-11-13T07:32:38.171Z,14.25
2022-11-13T07:35:05.246Z,14.24
2022-11-13T07:37:31.943Z,14.22
2022-11-13T07:39:58.567Z,14.22
2022-11-13T07:42:25.181Z,14.22
2022-11-13T07:44:55.605Z,14.20
2022-11-13T07:47:23.131Z,14.19
2022-11-13T07:49:49.741Z,14.19
2022-11-13T07:52:16.486Z,14.18
2022-11-13T07:54:43.341Z,14.15
2022-11-13T07:57:10.056Z,14.16
2022-11-13T07:59:36.772Z,14.17
2022-11-13T08:02:03.788Z,14.17
2022-11-13T08:04:30.770Z,14.15
2022-11-13T08:06:57.571Z,14.16
2022-11-13T08:09:24.301Z,14.17
2022-11-13T08:11:51.050Z,14.17
2022-11-13T08:14:17.703Z,14.16
2022-11-13T08:16:44.287Z,14.17
2022-11-13T08:19:11.067Z,14.16
2022-11-13T08:21:37.803Z,14.14
2022-11-13T08:24:04.570Z,14.15
2022-11-13T08:26:31.228Z,14.14
2022-11-13T08:28:57.787Z,14.16
2022-11-13T08:31:24.458Z,14.14
2022-11-13T08:33:51.077Z,14.14
2022-11-13T08:36:17.897Z,14.12
2022-11-13T08:38:44.572Z,14.12
2022-11-13T08:41:11.193Z,14.18
2022-11-13T08:43:57.838Z,14.21
2022-11-13T08:46:24.523Z,14.22
2022-11-13T08:48:51.137Z,14.20
2022-11-13T08:51:18.527Z,14.21
2022-11-13T08:53:45.182Z,14.21
2022-11-13T08:56:11.806Z,14.23
2022-11-13T08:58:38.597Z,14.23
2022-11-13T09:01:05.374Z,14.25
2022-11-13T09:03:32.078Z,14.25
2022-11-13T09:05:58.803Z,14.24
2022-11-13T09:08:25.542Z,14.26
2022-11-13T09:10:52.303Z,14.29
2022-11-13T09:13:18.945Z,14.33
2022-11-13T09:15:45.559Z,14.36
2022-11-13T09:18:12.232Z,14.37
2022-11-13T09:20:38.938Z,14.36
2022-11-13T09:23:07.478Z,14.36
2022-11-13T09:25:37.512Z,14.36
2022-11-13T09:28:05.283Z,14.36
2022-11-13T09:30:31.961Z,14.36
2022-11-13T09:33:00.592Z,14.37
2022-11-13T09:35:35.134Z,14.35
2022-11-13T09:38:11.127Z,14.35
2022-11-13T09:40:42.318Z,14.36
2022-11-13T09:43:15.122Z,14.38
2022-11-13T09:45:41.942Z,14.39
2022-11-13T09:48:18.527Z,14.40
2022-11-13T09:50:45.187Z,14.43
2022-11-13T09:53:12.551Z,14.45
2022-11-13T09:55:42.144Z,14.48
2022-11-13T09:58:20.007Z,14.52
2022-11-13T10:00:47.088Z,14.52
2022-11-13T10:03:39.394Z,14.50
2022-11-13T10:06:16.843Z,14.44
2022-11-13T10:08:43.693Z,14.40
2022-11-13T10:11:11.547Z,14.40
2022-11-13T10:13:38.387Z,14.40
2022-11-13T10:16:14.491Z,14.40
2022-11-13T10:18:41.862Z,14.39
2022-11-13T10:21:09.860Z,14.37
2022-11-13T10:23:38.102Z,14.34
2022-11-13T10:26:13.447Z,14.37
2022-11-13T10:28:51.044Z,14.39
2022-11-13T10:31:18.231Z,14.40
2022-11-13T10:33:45.039Z,14.41
2022-11-13T10:36:17.502Z,14.45
2022-11-13T10:38:47.618Z,14.48
2022-11-13T10:41:15.958Z,14.51
2022-11-13T10:43:51.883Z,14.49
2022-11-13T10:46:20.057Z,14.47
2022-11-13T10:48:46.779Z,14.47
2022-11-13T10:51:22.985Z,14.45
2022-11-13T10:53:49.693Z,14.45
2022-11-13T10:56:25.816Z,14.47
2022-11-13T10:59:01.902Z,14.51
2022-11-13T11:01:28.827Z,14.52
2022-11-13T11:04:06.502Z,14.54
2022-11-13T11:07:04.340Z,14.55
2022-11-13T11:09:31.177Z,14.58
2022-11-13T11:12:08.886Z,14.65
2022-11-13T11:14:38.883Z,14.71
2022-11-13T11:17:06.840Z,14.75
2022-11-13T11:19:37.461Z,14.79
2022-11-13T11:22:12.005Z,14.83
2022-11-13T11:24:42.084Z,14.84
2022-11-13T11:27:14.202Z,14.87
2022-11-13T11:29:45.718Z,14.88
2022-11-13T11:32:16.218Z,14.88
2022-11-13T11:34:43.358Z,14.89
2022-11-13T11:37:15.506Z,14.92
2022-11-13T11:39:45.539Z,14.91
2022-11-13T11:42:18.960Z,14.94
2022-11-13T11:44:56.679Z,14.93
2022-11-13T11:47:23.686Z,14.94
2022-11-13T11:49:50.561Z,14.93
2022-11-13T11:52:20.541Z,14.93
2022-11-13T11:54:58.335Z,14.94
2022-11-13T11:57:32.506Z,14.97
2022-11-13T12:00:04.061Z,14.99
2022-11-13T12:02:42.862Z,15.04
2022-11-13T12:05:22.448Z,15.06
2022-11-13T12:07:55.739Z,15.09
2022-11-13T12:10:32.449Z,15.08
2022-11-13T12:13:06.386Z,15.10
2022-11-13T12:15:35.324Z,15.10
2022-11-13T12:18:12.121Z,15.15
2022-11-13T12:20:44.175Z,15.18
2022-11-13T12:23:14.269Z,15.19
2022-11-13T12:25:45.823Z,15.20
2022-11-13T12:28:22.186Z,15.20
2022-11-13T12:30:52.199Z,15.22
2022-11-13T12:33:28.961Z,15.24
2022-11-13T12:35:56.098Z,15.26
2022-11-13T12:38:23.031Z,15.26
2022-11-13T12:40:59.044Z,15.27
2022-11-13T12:43:34.950Z,15.29
2022-11-13T12:46:08.683Z,15.30
2022-11-13T12:48:35.839Z,15.33
2022-11-13T12:51:04.349Z,15.34
2022-11-13T12:53:43.360Z,15.36
2022-11-13T12:56:14.650Z,15.38
2022-11-13T12:59:15.399Z,15.42
2022-11-13T13:01:44.679Z,15.47
2022-11-13T13:04:19.428Z,15.50
2022-11-13T13:06:47.452Z,15.53
2022-11-13T13:09:17.450Z,15.55
2022-11-13T13:11:48.307Z,15.57
2022-11-13T13:14:24.945Z,15.61
2022-11-13T13:16:51.755Z,15.70
2022-11-13T13:19:28.892Z,15.72
2022-11-13T13:21:55.745Z,15.75
2022-11-13T13:24:32.064Z,15.78
2022-11-13T13:27:00.266Z,15.79
2022-11-13T13:29:28.252Z,15.78
2022-11-13T13:32:08.623Z,15.78
2022-11-13T13:34:47.918Z,15.80
2022-11-13T13:37:15.961Z,15.80
2022-11-13T13:39:52.025Z,15.79
2022-11-13T13:42:30.384Z,15.81
2022-11-13T13:44:57.539Z,15.82
2022-11-13T13:47:24.596Z,15.86
2022-11-13T13:49:52.293Z,15.89
2022-11-13T13:52:22.638Z,15.91
2022-11-13T13:54:49.598Z,15.92
2022-11-13T13:57:16.952Z,15.91
2022-11-13T13:59:45.734Z,15.88
2022-11-13T14:02:15.152Z,15.90
2022-11-13T14:04:46.203Z,15.92
2022-11-13T14:07:23.169Z,15.95
2022-11-13T14:09:50.197Z,15.94
2022-11-13T14:12:18.483Z,15.95
2022-11-13T14:14:45.635Z,15.97
2022-11-13T14:17:12.838Z,16.03
2022-11-13T14:19:39.786Z,16.06
2022-11-13T14:22:09.067Z,16.08
2022-11-13T14:24:40.942Z,16.02
2022-11-13T14:27:09.265Z,16.02
2022-11-13T14:29:38.168Z,16.01
2022-11-13T14:32:06.760Z,16.00
2022-11-13T14:34:33.893Z,16.00
2022-11-13T14:37:11.359Z,16.00
2022-11-13T14:39:38.385Z,15.99
2022-11-13T14:42:06.721Z,15.98
2022-11-13T14:44:35.192Z,15.98
2022-11-13T14:47:04.533Z,15.96
2022-11-13T14:49:32.830Z,15.94
2022-11-13T14:52:01.755Z,15.95
2022-11-13T14:54:33.813Z,15.92
2022-11-13T14:57:11.524Z,15.91
2022-11-13T14:59:39.010Z,15.94
2022-11-13T15:02:06.431Z,15.95
2022-11-13T15:04:39.275Z,15.98
2022-11-13T15:07:17.324Z,15.98
2022-11-13T15:09:44.536Z,16.01
2022-11-13T15:12:12.710Z,16.03
2022-11-13T15:14:41.800Z,16.03
2022-11-13T15:17:13.774Z,16.03
2022-11-13T15:19:40.730Z,16.05
2022-11-13T15:22:30.801Z,16.03
2022-11-13T15:24:58.239Z,16.05
2022-11-13T15:27:25.184Z,16.06
2022-11-13T15:29:52.347Z,16.08
2022-11-13T15:32:19.483Z,16.04
2022-11-13T15:34:46.980Z,16.00
2022-11-13T15:37:15.407Z,15.96
2022-11-13T15:39:43.113Z,15.90
2022-11-13T15:42:13.386Z,15.87
2022-11-13T15:44:41.287Z,15.86
2022-11-13T15:47:19.333Z,15.85
2022-11-13T15:49:56.573Z,15.84
2022-11-13T15:52:36.241Z,15.80
2022-11-13T15:55:04.384Z,15.78
2022-11-13T15:57:31.665Z,15.75
2022-11-13T15:59:58.910Z,15.72
2022-11-13T16:02:26.970Z,15.67
2022-11-13T16:04:56.850Z,15.67
2022-11-13T16:07:27.704Z,15.62
2022-11-13T16:09:54.985Z,15.60
2022-11-13T16:12:22.305Z,15.57
2022-11-13T16:14:49.317Z,15.56
2022-11-13T16:17:20.554Z,15.53
2022-11-13T16:19:50.095Z,15.52
2022-11-13T16:22:19.206Z,15.50
2022-11-13T16:24:46.473Z,15.50
2022-11-13T16:27:18.058Z,15.50
2022-11-13T16:29:45.165Z,15.45
2022-11-13T16:32:14.920Z,15.44
2022-11-13T16:34:42.207Z,15.43
2022-11-13T16:37:14.392Z,15.42
2022-11-13T16:39:41.575Z,15.42
2022-11-13T16:42:08.904Z,15.41
2022-11-13T16:44:36.271Z,15.38
2022-11-13T16:47:03.463Z,15.37
2022-11-13T16:49:30.463Z,15.35
2022-11-13T16:51:57.758Z,15.33
2022-11-13T16:54:24.826Z,15.31
2022-11-13T16:56:52.045Z,15.30
2022-11-13T16:59:20.791Z,15.28
2022-11-13T17:01:48.127Z,15.28
2022-11-13T17:04:15.520Z,15.27
2022-11-13T17:06:42.794Z,15.24
2022-11-13T17:09:10.262Z,15.22
2022-11-13T17:11:37.424Z,15.20
2022-11-13T17:14:05.060Z,15.20
2022-11-13T17:16:32.358Z,15.19
2022-11-13T17:19:00.223Z,15.18
2022-11-13T17:21:28.843Z,15.18
2022-11-13T17:23:58.138Z,15.18
2022-11-13T17:26:25.863Z,15.17
2022-11-13T17:28:53.394Z,15.16
2022-11-13T17:31:21.201Z,15.15
2022-11-13T17:33:48.482Z,15.14
2022-11-13T17:36:15.802Z,15.13
2022-11-13T17:38:43.151Z,15.11
2022-11-13T17:41:11.835Z,15.12
2022-11-13T17:43:39.951Z,15.12
2022-11-13T17:46:10.518Z,15.11
2022-11-13T17:48:40.604Z,15.09
2022-11-13T17:51:09.097Z,15.10
2022-11-13T17:53:36.335Z,15.07
2022-11-13T17:56:08.200Z,15.07
2022-11-13T17:58:40.609Z,15.07
2022-11-13T18:01:10.120Z,15.09
2022-11-13T18:03:37.802Z,15.08
2022-11-13T18:06:06.627Z,15.07
2022-11-13T18:08:34.155Z,15.06
2022-11-13T18:11:07.554Z,15.04
2022-11-13T18:13:34.685Z,15.03
2022-11-13T18:16:06.370Z,15.02
2022-11-13T18:18:33.698Z,15.01
2022-11-13T18:21:03.610Z,14.98
2022-11-13T18:23:41.206Z,14.94
2022-11-13T18:26:10.510Z,14.91
2022-11-13T18:28:37.859Z,14.90
2022-11-13T18:31:08.587Z,14.90
2022-11-13T18:33:35.971Z,14.89
2022-11-13T18:36:04.854Z,14.86
2022-11-13T18:38:32.237Z,14.82
2022-11-13T18:41:03.660Z,14.79
2022-11-13T18:43:31.543Z,14.78
2022-11-13T18:46:01.014Z,14.81
2022-11-13T18:48:30.167Z,14.80
2022-11-13T18:50:58.145Z,14.78
2022-11-13T18:53:25.434Z,14.74
2022-11-13T18:55:52.842Z,14.71
2022-11-13T18:58:20.157Z,14.70
2022-11-13T19:00:49.752Z,14.71
2022-11-13T19:03:17.084Z,14.69
2022-11-13T19:05:45.172Z,14.68
2022-11-13T19:08:13.269Z,14.64
2022-11-13T19:10:40.879Z,14.63
2022-11-13T19:13:08.868Z,14.61
2022-11-13T19:15:36.961Z,14.59
2022-11-13T19:18:04.449Z,14.62
2022-11-13T19:20:31.675Z,14.64
2022-11-13T19:22:59.409Z,14.66
2022-11-13T19:25:26.640Z,14.66
2022-11-13T19:27:54.930Z,14.66
2022-11-13T19:30:22.218Z,14.66
2022-11-13T19:32:49.340Z,14.67
2022-11-13T19:35:16.345Z,14.68
2022-11-13T19:37:44.096Z,14.69
2022-11-13T19:40:14.317Z,14.70
2022-11-13T19:42:42.164Z,14.72
2022-11-13T19:45:09.977Z,14.72
2022-11-13T19:47:37.102Z,14.73
2022-11-13T19:50:04.574Z,14.75
2022-11-13T19:52:31.665Z,14.75
2022-11-13T19:54:58.860Z,14.76
2022-11-13T19:57:26.031Z,14.78
2022-11-13T19:59:53.093Z,14.78
2022-11-13T20:02:20.311Z,14.79
2022-11-13T20:04:47.650Z,14.80
2022-11-13T20:07:19.266Z,14.79
2022-11-13T20:09:47.270Z,14.82
2022-11-13T20:12:14.793Z,14.85
2022-11-13T20:14:42.074Z,14.86
2022-11-13T20:17:09.168Z,14.84
2022-11-13T20:19:40.867Z,14.87
2022-11-13T20:22:08.023Z,14.89
2022-11-13T20:24:34.949Z,14.89
2022-11-13T20:27:01.918Z,14.88
2022-11-13T20:29:29.217Z,14.91
2022-11-13T20:31:56.153Z,14.92
2022-11-13T20:34:23.115Z,14.93
2022-11-13T20:36:50.248Z,14.94
2022-11-13T20:39:17.329Z,14.95
2022-11-13T20:41:44.473Z,14.96
2022-11-13T20:44:12.698Z,14.98
2022-11-13T20:46:39.651Z,14.97
2022-11-13T20:49:06.523Z,14.95
2022-11-13T20:51:33.541Z,14.95
2022-11-13T20:54:00.942Z,14.92
2022-11-13T20:56:27.905Z,14.90
2022-11-13T20:58:54.920Z,14.89
2022-11-13T21:01:25.559Z,14.91
2022-11-13T21:03:52.804Z,14.92
2022-11-13T21:06:21.125Z,14.93
2022-11-13T21:08:48.705Z,14.92
2022-11-13T21:11:19.172Z,14.92
2022-11-13T21:13:46.098Z,14.91
2022-11-13T21:16:12.983Z,14.90
2022-11-13T21:18:40.034Z,14.90
2022-11-13T21:21:07.812Z,14.90
2022-11-13T21:23:35.074Z,14.89
2022-11-13T21:26:03.027Z,14.90
2022-11-13T21:28:33.644Z,14.87
2022-11-13T21:31:03.763Z,14.88
2022-11-13T21:33:31.825Z,14.86
2022-11-13T21:36:03.908Z,14.88
2022-11-13T21:38:31.544Z,14.88
2022-11-13T21:41:19.282Z,14.89
2022-11-13T21:43:46.247Z,14.88
2022-11-13T21:46:14.740Z,14.89
2022-11-13T21:48:41.870Z,14.90
2022-11-13T21:51:09.191Z,14.90
2022-11-13T21:53:36.094Z,14.90
2022-11-13T21:56:03.167Z,14.87
2022-11-13T21:58:31.558Z,14.83
2022-11-13T22:00:58.836Z,14.82
2022-11-13T22:03:26.061Z,14.79
2022-11-13T22:06:11.600Z,14.76
2022-11-13T22:08:38.415Z,14.70
2022-11-13T22:11:05.290Z,14.68
2022-11-13T22:13:32.262Z,14.68
2022-11-13T22:15:58.953Z,14.65
2022-11-13T22:18:26.174Z,14.64
2022-11-13T22:20:53.137Z,14.61
2022-11-13T22:23:19.891Z,14.59
2022-11-13T22:25:46.744Z,14.56
2022-11-13T22:28:13.484Z,14.53
2022-11-13T22:30:40.146Z,14.50
2022-11-13T22:33:06.888Z,14.49
2022-11-13T22:35:33.584Z,14.47
2022-11-13T22:38:01.942Z,14.46
2022-11-13T22:40:28.701Z,14.46
2022-11-13T22:42:56.077Z,14.48
2022-11-13T22:45:24.041Z,14.47
2022-11-13T22:47:51.092Z,14.45
2022-11-13T22:50:18.316Z,14.44
2022-11-13T22:52:44.956Z,14.43
2022-11-13T22:55:11.698Z,14.38
2022-11-13T22:57:38.407Z,14.37
2022-11-13T23:00:09.449Z,14.35
2022-11-13T23:02:36.161Z,14.32
2022-11-13T23:05:02.858Z,14.29
2022-11-13T23:07:30.749Z,14.26
2022-11-13T23:09:57.446Z,14.23
2022-11-13T23:12:24.077Z,14.20
2022-11-13T23:14:50.847Z,14.17
2022-11-13T23:17:17.559Z,14.14
2022-11-13T23:19:44.193Z,14.11
2022-11-13T23:22:10.797Z,14.05
2022-11-13T23:24:37.402Z,14.00
2022-11-13T23:27:04.567Z,13.96
2022-11-13T23:29:31.417Z,13.95
2022-11-13T23:31:58.017Z,13.92
2022-11-13T23:34:45.281Z,13.88
2022-11-13T23:37:11.251Z,13.84
2022-11-13T23:39:38.421Z,13.81
2022-11-13T23:42:05.112Z,13.80
2022-11-13T23:44:31.762Z,13.78
2022-11-13T23:46:58.416Z,13.75
2022-11-13T23:49:25.107Z,13.75
2022-11-13T23:51:51.851Z,13.72
2022-11-13T23:54:18.476Z,13.67
2022-11-13T23:56:45.123Z,13.65
2022-11-13T23:59:11.743Z,13.63
